Latest Weather Observations for Scottsdale

IDT60801

Issued at 2:31 pm EST Sunday 19 April 2015 (issued every 30 minutes, with the page automatically refreshed every 10 minutes)

About weather observations | Map of weather stations | Latest weather observations for TAS | Other Formats
Station Details ID: 091219 Name: SCOTTSDALE (WEST MINSTONE ROAD) Lat: -41.17 Lon: 147.49 Height: 197.5 m
Data from the previous 72 hours. | See also: Recent months at Scottsdale
Date/Time
EST
Temp
°C
App
Temp
°C
Dew
Point
Rel
Hum
%
Delta-T
°C
Wind Press
QNH
hPa
Press
MSL
hPa
Rain
since 9 am
mm
Dir
 
Spd
km/h
Gust
km/h
Spd
kts
Gust
kts
19/02:30pm 12.3 4.9 -3.4 33 6.0 S 26 35 14 19 1025.9 - -
19/02:00pm 12.4 6.2 -3.2 33 6.0 S 20 33 11 18 1025.4 - -
19/01:30pm 12.1 4.4 -3.3 34 5.9 S 28 39 15 21 1025.2 - -
19/01:00pm 12.6 5.9 -1.3 38 5.6 S 24 43 13 23 1024.7 - -
19/12:30pm 12.0 3.6 -2.3 37 5.6 S 32 43 17 23 1024.3 - -
19/12:00pm 11.7 5.0 -1.3 40 5.2 S 24 37 13 20 1024.2 1024.2 -
19/11:30am 11.8 4.2 -1.9 38 5.4 S 28 39 15 21 1024.0 - -
19/11:00am 11.1 4.5 -0.5 44 4.7 S 24 35 13 19 1023.8 - -
19/10:30am 10.7 4.3 -1.5 42 4.8 S 22 33 12 18 1023.4 - -
19/10:00am 10.1 1.7 -2.1 42 4.7 S 32 50 17 27 1022.5 - -
19/09:51am 9.9 1.6 -1.7 44 4.5 S 32 50 17 27 1022.3 - -
19/09:30am 9.8 3.9 -2.2 43 4.6 SSW 19 33 10 18 1022.1 - -
19/09:00am 9.4 2.1 -3.2 41 4.7 SSW 26 46 14 25 1021.5 1021.5 -
19/08:54am 9.5 1.7 -3.4 40 4.8 SSW 28 46 15 25 1021.4 - -
19/08:30am 9.0 2.3 -0.9 50 3.9 S 24 41 13 22 1021.1 - -
19/08:00am 8.8 3.1 -0.9 50 3.8 S 19 30 10 16 1020.1 - -
19/07:30am 8.6 2.7 1.6 61 2.9 S 22 39 12 21 1019.2 - -
19/07:22am 8.6 1.5 1.6 61 2.9 S 28 46 15 25 1019.1 - -
19/07:00am 8.0 3.1 1.7 64 2.6 S 17 28 9 15 1018.3 - -
19/06:30am 8.4 3.1 1.7 63 2.8 SSW 19 26 10 14 1017.3 - -
19/06:00am 7.3 3.0 1.1 65 2.5 S 13 22 7 12 1016.4 1016.4 -
19/05:30am 5.6 2.1 1.1 73 1.8 SSE 9 13 5 7 1015.7 - -
19/05:00am 5.7 2.8 2.8 81 1.2 W 7 11 4 6 1015.1 - -
19/04:30am 6.3 3.0 2.7 78 1.5 SW 9 13 5 7 1014.3 - -
19/04:00am 6.2 2.6 2.9 79 1.4 SW 11 13 6 7 1013.7 - -
19/03:30am 7.6 2.9 3.2 74 1.9 S 17 20 9 11 1013.3 - -
19/03:00am 4.4 2.5 2.9 90 0.6 S 2 7 1 4 1012.8 1012.7 -
19/02:30am 5.0 2.2 3.1 87 0.8 SSE 7 11 4 6 1012.5 - -
19/02:00am 6.7 4.0 3.9 82 1.2 SW 7 11 4 6 1012.2 - -
19/01:30am 7.4 4.7 3.7 77 1.6 NNW 7 9 4 5 1012.2 - -
19/01:00am 6.4 2.9 3.6 82 1.2 N 11 11 6 6 1012.1 - -
19/12:30am 8.3 5.6 3.7 73 2.0 NW 7 9 4 5 1011.9 - -
19/12:00am 7.6 5.3 4.7 82 1.3 N 6 9 3 5 1011.3 1011.3 -
 
Date/Time
EST
Temp
°C
App
Temp
°C
Dew
Point
Rel
Hum
%
Delta-T
°C
Wind Press
QNH
hPa
Press
MSL
hPa
Rain
since 9 am
mm
Dir
 
Spd
km/h
Gust
km/h
Spd
kts
Gust
kts
18/11:30pm 9.1 6.5 4.4 72 2.1 WNW 7 11 4 6 1011.4 - -
18/11:00pm 9.4 5.7 4.5 71 2.2 WNW 13 20 7 11 1011.0 - -
18/10:30pm 9.4 5.1 5.2 75 1.9 NW 17 20 9 11 1010.6 - -
18/10:00pm 9.6 5.3 5.2 74 2.0 WNW 17 32 9 17 1009.9 - -
18/09:30pm 9.9 6.5 5.8 75 1.9 WNW 13 20 7 11 1009.6 - -
18/09:00pm 10.3 6.1 5.8 73 2.1 WNW 17 26 9 14 1009.5 1009.5 -
18/08:30pm 11.2 6.5 5.9 70 2.5 WNW 20 32 11 17 1008.9 - -
18/08:00pm 12.3 7.3 4.5 59 3.6 WNW 20 37 11 20 1007.9 - -
18/07:30pm 12.6 8.3 5.1 60 3.5 W 17 32 9 17 1007.8 - -
18/07:00pm 12.6 8.2 7.5 71 2.5 W 20 44 11 24 1007.5 - -
18/06:30pm 13.2 10.7 12.3 94 0.5 NNW 17 32 9 17 1006.6 - -
18/06:00pm 13.4 11.1 11.7 89 0.9 NW 15 22 8 12 1006.4 1006.4 -
18/05:30pm 13.3 10.6 11.6 89 0.9 NW 17 28 9 15 1006.2 - -
18/05:00pm 13.3 10.0 11.6 89 0.9 NW 20 39 11 21 1006.2 - -
18/04:30pm 13.7 10.2 10.9 83 1.5 NW 20 32 11 17 1006.0 - -
18/04:00pm 14.1 9.7 10.3 78 2.0 NW 24 37 13 20 1006.0 - -
18/03:30pm 14.6 10.0 9.6 72 2.6 NW 24 41 13 22 1006.1 - -
18/03:00pm 14.6 10.9 9.6 72 2.6 NW 19 30 10 16 1006.3 1006.3 -
18/02:30pm 15.0 11.1 9.4 69 2.9 NW 20 30 11 16 1006.6 - -
18/02:00pm 15.5 10.4 7.6 59 4.0 NW 24 35 13 19 1006.6 - -
18/01:30pm 16.4 11.3 7.8 56 4.4 WNW 24 41 13 22 1006.6 - -
18/01:00pm 16.3 11.3 7.9 57 4.3 WNW 24 35 13 19 1006.9 - -
18/12:30pm 15.1 11.3 9.1 67 3.1 WNW 19 30 10 16 1007.7 - -
18/12:00pm 14.7 10.9 9.9 73 2.5 NW 20 30 11 16 1008.2 1008.0 -
18/11:30am 14.3 10.9 9.3 72 2.6 WNW 17 28 9 15 1008.4 - -
18/11:00am 14.2 10.3 9.6 74 2.4 WNW 20 30 11 16 1008.7 - -
18/10:30am 14.2 10.3 9.6 74 2.4 NW 20 28 11 15 1008.9 - -
18/10:00am 14.2 11.6 10.6 79 1.9 WNW 15 26 8 14 1009.0 - -
18/09:30am 14.1 12.8 12.5 90 0.9 WNW 11 15 6 8 1009.1 - -
18/09:00am 13.3 12.0 12.4 94 0.5 NW 11 15 6 8 1009.5 1009.5 -
18/08:30am 13.0 12.1 12.6 97 0.2 NW 9 13 5 7 1009.5 - -
18/08:00am 12.4 11.7 12.0 97 0.2 WNW 7 9 4 5 1009.6 - -
18/07:30am 12.0 10.8 11.6 97 0.2 NW 9 19 5 10 1009.6 - -
18/07:00am 11.8 10.5 11.2 96 0.3 NW 9 13 5 7 1009.3 - -
18/06:30am 11.6 10.6 11.0 96 0.3 WNW 7 11 4 6 1009.3 - -
18/06:00am 11.5 11.3 10.5 94 0.5 NW 2 7 1 4 1009.2 1009.2 -
18/05:30am 11.2 10.2 10.4 95 0.4 NW 6 9 3 5 1009.1 - -
18/05:00am 11.2 10.2 10.2 94 0.5 WNW 6 9 3 5 1009.3 - -
18/04:30am 11.5 10.9 10.3 92 0.6 E 4 7 2 4 1008.8 - -
18/04:00am 11.4 9.7 9.8 90 0.8 E 9 9 5 5 1009.1 - -
18/03:30am 11.5 10.2 9.9 90 0.8 E 7 7 4 4 1009.7 - -
18/03:00am 11.6 10.3 9.9 89 0.9 ESE 7 7 4 4 1010.1 1010.1 -
18/02:30am 11.5 10.1 9.5 87 1.0 SSE 7 9 4 5 1010.8 - -
18/02:00am 11.3 10.1 9.7 90 0.8 SE 6 6 3 3 1011.6 - -
18/01:30am 11.1 11.0 9.5 90 0.8 CALM 0 0 0 0 1012.2 - -
18/01:00am 10.8 10.7 9.4 91 0.7 CALM 0 6 0 3 1012.4 - -
18/12:30am 10.8 9.5 9.2 90 0.8 SE 6 7 3 4 1012.7 - -
18/12:00am 11.1 9.2 8.9 86 1.1 SSE 9 11 5 6 1013.2 1013.2 -
 
Date/Time
EST
Temp
°C
App
Temp
°C
Dew
Point
Rel
Hum
%
Delta-T
°C
Wind Press
QNH
hPa
Press
MSL
hPa
Rain
since 9 am
mm
Dir
 
Spd
km/h
Gust
km/h
Spd
kts
Gust
kts
17/11:30pm 11.0 9.5 9.0 87 1.0 SSE 7 9 4 5 1013.8 - -
17/11:00pm 10.9 9.6 9.1 89 0.9 SE 6 7 3 4 1014.5 - -
17/10:30pm 11.0 10.7 8.8 86 1.1 CALM 0 0 0 0 1014.9 - -
17/10:00pm 11.0 10.4 8.8 86 1.1 NE 2 6 1 3 1015.2 - -
17/09:30pm 11.0 10.7 8.8 86 1.1 CALM 0 2 0 1 1016.1 - -
17/09:00pm 10.9 10.7 8.9 87 1.0 CALM 0 0 0 0 1016.1 1016.1 -
17/08:30pm 10.3 10.0 8.7 90 0.8 CALM 0 0 0 0 1016.1 - -
17/08:00pm 11.3 11.2 9.3 87 1.0 CALM 0 0 0 0 1016.4 - -
17/07:30pm 11.2 10.9 8.8 85 1.2 CALM 0 2 0 1 1016.7 - -
17/07:00pm 10.6 9.1 8.4 86 1.1 NNW 6 7 3 4 1016.9 - -
17/06:30pm 11.3 9.7 8.1 81 1.6 NNW 6 9 3 5 1016.8 - -
17/06:00pm 12.0 9.5 8.0 76 2.0 NW 11 15 6 8 1016.8 1016.8 -
17/05:30pm 12.3 10.1 7.8 74 2.2 NW 9 15 5 8 1016.6 - -
17/05:00pm 12.9 10.3 7.9 71 2.5 NW 11 19 6 10 1016.6 - -
17/04:30pm 14.1 10.7 7.7 65 3.2 NW 15 20 8 11 1016.5 - -
17/04:00pm 15.6 12.1 7.2 57 4.2 NW 15 20 8 11 1017.0 - -
17/03:30pm 16.0 12.5 7.0 55 4.5 NW 15 24 8 13 1017.4 - -
17/03:00pm 16.0 11.9 7.9 58 4.1 NW 19 28 10 15 1017.6 1017.7 -
17/02:30pm 15.6 12.6 7.9 60 3.9 WNW 13 20 7 11 1017.7 - -
17/02:00pm 16.3 11.7 6.6 52 4.8 NW 20 30 11 16 1017.9 - -
17/01:30pm 16.6 12.6 6.7 52 4.9 WNW 17 24 9 13 1018.4 - -
17/01:00pm 16.4 13.0 7.7 56 4.4 NW 15 26 8 14 1018.9 - -
17/12:30pm 15.5 11.7 7.5 59 4.0 WNW 17 26 9 14 1019.5 - -
17/12:00pm 15.8 12.1 7.9 59 4.0 WNW 17 24 9 13 1020.2 1020.2 -
17/11:30am 15.6 11.7 8.8 64 3.5 NW 19 28 10 15 1020.8 - -
17/11:00am 14.1 10.6 8.6 69 2.8 WNW 17 24 9 13 1021.4 - -
17/10:30am 14.0 11.8 9.3 73 2.4 WNW 11 15 6 8 1021.8 - -
17/10:00am 14.1 11.2 9.7 75 2.3 WNW 15 22 8 12 1021.8 - -
17/09:30am 13.0 10.4 9.3 78 1.9 WNW 13 24 7 13 1021.8 - -
17/09:00am 11.9 9.5 8.5 80 1.7 W 11 15 6 8 1022.0 1022.1 -
17/08:30am 9.6 7.8 7.3 85 1.1 SW 6 7 3 4 1022.4 - -
17/08:00am 9.1 7.1 7.2 88 0.9 S 7 9 4 5 1022.8 - -
17/07:30am 7.0 6.1 6.1 94 0.4 CALM 0 0 0 0 1022.5 - -
17/07:00am 6.4 4.3 5.7 95 0.3 SSE 6 9 3 5 1022.2 - -
17/06:30am 8.4 7.2 6.5 88 0.9 SSE 2 7 1 4 1021.9 - -
17/06:00am 9.1 6.7 7.2 88 0.9 WSW 9 17 5 9 1021.8 1022.0 -
17/05:30am 9.3 7.3 7.2 87 1.0 WSW 7 13 4 7 1021.4 - -
17/05:00am 10.0 7.4 7.7 86 1.1 WSW 11 20 6 11 1021.3 - -
17/04:30am 9.8 6.7 7.1 83 1.3 SW 13 19 7 10 1021.4 - -
17/04:00am 8.9 6.0 6.3 84 1.2 SW 11 17 6 9 1021.2 - -
17/03:30am 8.3 6.0 5.9 85 1.1 WSW 7 11 4 6 1021.2 - -
17/03:00am 8.7 6.0 5.4 80 1.5 WSW 9 13 5 7 1021.1 1021.1 -
17/02:30am 10.1 6.3 6.0 76 1.9 WSW 15 24 8 13 1021.3 - -
17/02:00am 8.8 5.6 5.3 79 1.6 WSW 11 15 6 8 1021.6 - -
17/01:30am 9.6 6.5 5.7 76 1.8 W 11 19 6 10 1021.7 - -
17/01:00am 9.5 6.3 5.1 74 2.0 W 11 20 6 11 1021.8 - -
17/12:30am 8.2 5.6 4.3 76 1.7 W 7 11 4 6 1022.2 - -
17/12:00am 8.6 6.0 4.0 73 2.0 SW 7 13 4 7 1022.3 1022.4 -
 
Date/Time
EST
Temp
°C
App
Temp
°C
Dew
Point
Rel
Hum
%
Delta-T
°C
Wind Press
QNH
hPa
Press
MSL
hPa
Rain
since 9 am
mm
Dir
 
Spd
km/h
Gust
km/h
Spd
kts
Gust
kts
16/11:30pm 8.6 6.2 4.3 74 1.9 WNW 6 7 3 4 1022.6 - -
16/11:00pm 8.3 5.3 4.0 74 1.9 NNW 9 11 5 6 1022.5 - -
16/10:30pm 8.2 6.9 4.1 75 1.8 CALM 0 7 0 4 1022.3 - -
16/10:00pm 9.1 6.5 4.1 71 2.2 NW 7 11 4 6 1022.2 - -
16/09:30pm 9.7 6.9 5.1 73 2.1 NW 9 11 5 6 1022.1 - -
16/09:00pm 9.7 7.3 5.3 74 2.0 NW 7 9 4 5 1022.1 1022.2 -
16/08:30pm 10.3 7.5 5.3 71 2.3 NW 9 11 5 6 1021.7 - -
16/08:00pm 10.6 8.2 5.4 70 2.4 NNW 7 11 4 6 1021.3 - -
16/07:30pm 11.4 9.2 6.1 70 2.5 WNW 7 11 4 6 1020.9 - -
16/07:00pm 12.3 8.9 6.0 65 3.0 WNW 13 22 7 12 1020.8 - -
16/06:30pm 13.1 9.7 6.0 62 3.4 WNW 13 20 7 11 1020.4 - -
16/06:00pm 13.6 10.3 6.3 61 3.5 WNW 13 19 7 10 1020.0 1020.0 -
16/05:30pm 14.4 11.5 6.6 59 3.8 NW 11 17 6 9 1019.7 - -
16/05:00pm 15.8 12.6 6.9 55 4.4 NW 13 19 7 10 1019.2 - -
16/04:30pm 16.9 13.3 6.6 50 5.1 WNW 15 22 8 12 1019.0 - -
16/04:00pm 17.6 14.3 6.3 47 5.6 WNW 13 22 7 12 1019.1 - -
16/03:30pm 18.2 14.1 6.4 46 5.9 WNW 17 30 9 16 1019.0 - -
16/03:00pm 18.3 14.3 6.5 46 5.9 W 17 28 9 15 1018.9 1018.9 -

Other Formats:

Comma delimited format used in spreadsheet applications
http://www.bom.gov.au/fwo/IDT60801/IDT60801.94972.axf

JavaScript Object Notation format (JSON) in row-major order
http://www.bom.gov.au/fwo/IDT60801/IDT60801.94972.json